sensor_id;sensor_type;location;lat;lon;timestamp;temperature;humidity
11204;DHT22;5659;49.408;11.116;2023-03-31T15:03:08;15.80;99.90
11204;DHT22;5659;49.408;11.116;2023-03-31T15:05:39;14.70;99.90
11204;DHT22;5659;49.408;11.116;2023-03-31T15:08:10;14.20;99.90
11204;DHT22;5659;49.408;11.116;2023-03-31T15:10:38;13.80;99.90
11204;DHT22;5659;49.408;11.116;2023-03-31T15:13:09;13.40;99.90
11204;DHT22;5659;49.408;11.116;2023-03-31T15:15:35;13.80;99.90
11204;DHT22;5659;49.408;11.116;2023-03-31T15:18:01;13.70;99.90
11204;DHT22;5659;49.408;11.116;2023-03-31T15:20:35;13.40;99.90
11204;DHT22;5659;49.408;11.116;2023-03-31T15:23:16;13.70;99.90
11204;DHT22;5659;49.408;11.116;2023-03-31T15:25:43;13.80;99.90
11204;DHT22;5659;49.408;11.116;2023-03-31T15:28:15;13.90;99.90
11204;DHT22;5659;49.408;11.116;2023-03-31T15:30:42;13.30;99.90
11204;DHT22;5659;49.408;11.116;2023-03-31T15:33:21;13.10;99.90
11204;DHT22;5659;49.408;11.116;2023-03-31T15:35:50;12.70;99.90
11204;DHT22;5659;49.408;11.116;2023-03-31T15:38:16;12.60;99.90
11204;DHT22;5659;49.408;11.116;2023-03-31T15:40:50;12.50;99.90
11204;DHT22;5659;49.408;11.116;2023-03-31T15:43:29;12.40;99.90
11204;DHT22;5659;49.408;11.116;2023-03-31T15:45:56;12.40;99.90
11204;DHT22;5659;49.408;11.116;2023-03-31T15:48:24;12.80;99.90
11204;DHT22;5659;49.408;11.116;2023-03-31T15:51:01;12.60;99.90
11204;DHT22;5659;49.408;11.116;2023-03-31T15:53:37;12.80;99.90
11204;DHT22;5659;49.408;11.116;2023-03-31T15:58:52;12.70;99.90
11204;DHT22;5659;49.408;11.116;2023-03-31T16:01:19;12.60;99.90
11204;DHT22;5659;49.408;11.116;2023-03-31T16:03:45;13.70;99.90
11204;DHT22;5659;49.408;11.116;2023-03-31T16:06:23;15.00;99.90
11204;DHT22;5659;49.408;11.116;2023-03-31T16:09:05;14.70;99.90
11204;DHT22;5659;49.408;11.116;2023-03-31T16:11:47;14.80;99.90
11204;DHT22;5659;49.408;11.116;2023-03-31T16:17:00;13.80;99.90
11204;DHT22;5659;49.408;11.116;2023-03-31T16:19:30;13.60;99.90
11204;DHT22;5659;49.408;11.116;2023-03-31T16:21:58;13.00;99.90
11204;DHT22;5659;49.408;11.116;2023-03-31T16:24:31;13.70;99.90
11204;DHT22;5659;49.408;11.116;2023-03-31T16:27:02;13.50;99.90
11204;DHT22;5659;49.408;11.116;2023-03-31T16:29:35;12.70;99.90
11204;DHT22;5659;49.408;11.116;2023-03-31T16:32:11;12.50;99.90
11204;DHT22;5659;49.408;11.116;2023-03-31T16:34:57;12.20;99.90
11204;DHT22;5659;49.408;11.116;2023-03-31T16:37:23;12.20;99.90
11204;DHT22;5659;49.408;11.116;2023-03-31T16:39:49;12.10;99.90
11204;DHT22;5659;49.408;11.116;2023-03-31T16:42:15;12.70;99.90
11204;DHT22;5659;49.408;11.116;2023-03-31T16:44:41;12.40;99.90
11204;DHT22;5659;49.408;11.116;2023-03-31T16:47:06;11.90;99.90
11204;DHT22;5659;49.408;11.116;2023-03-31T16:49:32;12.20;99.90
11204;DHT22;5659;49.408;11.116;2023-03-31T16:51:57;11.80;99.90
11204;DHT22;5659;49.408;11.116;2023-03-31T16:54:23;12.30;99.90
11204;DHT22;5659;49.408;11.116;2023-03-31T16:56:49;12.20;99.90
11204;DHT22;5659;49.408;11.116;2023-03-31T16:59:14;12.30;99.90
11204;DHT22;5659;49.408;11.116;2023-03-31T17:01:40;11.90;99.90
11204;DHT22;5659;49.408;11.116;2023-03-31T17:04:06;11.80;99.90
11204;DHT22;5659;49.408;11.116;2023-03-31T17:06:32;12.00;99.90
11204;DHT22;5659;49.408;11.116;2023-03-31T17:08:57;11.90;99.90
11204;DHT22;5659;49.408;11.116;2023-03-31T17:11:23;11.50;99.90
11204;DHT22;5659;49.408;11.116;2023-03-31T17:13:48;11.50;99.90
11204;DHT22;5659;49.408;11.116;2023-03-31T17:16:15;11.50;99.90
11204;DHT22;5659;49.408;11.116;2023-03-31T17:18:42;11.80;99.90
11204;DHT22;5659;49.408;11.116;2023-03-31T17:21:12;11.70;99.90
11204;DHT22;5659;49.408;11.116;2023-03-31T17:23:38;11.60;99.90
11204;DHT22;5659;49.408;11.116;2023-03-31T17:26:06;11.00;99.90
11204;DHT22;5659;49.408;11.116;2023-03-31T17:28:34;11.90;99.90
11204;DHT22;5659;49.408;11.116;2023-03-31T17:31:00;11.30;99.90
11204;DHT22;5659;49.408;11.116;2023-03-31T17:33:26;11.40;99.90
11204;DHT22;5659;49.408;11.116;2023-03-31T17:35:56;11.40;99.90
11204;DHT22;5659;49.408;11.116;2023-03-31T17:38:24;11.70;99.90
11204;DHT22;5659;49.408;11.116;2023-03-31T17:40:49;11.00;99.90
11204;DHT22;5659;49.408;11.116;2023-03-31T17:43:15;11.10;99.90
11204;DHT22;5659;49.408;11.116;2023-03-31T17:45:40;11.80;99.90
11204;DHT22;5659;49.408;11.116;2023-03-31T17:48:06;11.00;99.90
11204;DHT22;5659;49.408;11.116;2023-03-31T17:50:34;11.60;99.90
11204;DHT22;5659;49.408;11.116;2023-03-31T17:53:00;10.90;99.90
11204;DHT22;5659;49.408;11.116;2023-03-31T17:55:33;10.90;99.90
11204;DHT22;5659;49.408;11.116;2023-03-31T17:57:59;10.60;99.90
11204;DHT22;5659;49.408;11.116;2023-03-31T18:00:26;10.50;99.90
11204;DHT22;5659;49.408;11.116;2023-03-31T18:02:51;11.10;99.90
11204;DHT22;5659;49.408;11.116;2023-03-31T18:05:19;10.20;99.90
11204;DHT22;5659;49.408;11.116;2023-03-31T18:07:44;10.40;99.90
11204;DHT22;5659;49.408;11.116;2023-03-31T18:10:10;11.10;99.90
11204;DHT22;5659;49.408;11.116;2023-03-31T18:12:36;10.40;99.90
11204;DHT22;5659;49.408;11.116;2023-03-31T18:15:03;10.40;99.90
11204;DHT22;5659;49.408;11.116;2023-03-31T18:17:31;10.40;99.90
11204;DHT22;5659;49.408;11.116;2023-03-31T18:19:57;10.30;99.90
11204;DHT22;5659;49.408;11.116;2023-03-31T18:22:23;10.80;99.90
11204;DHT22;5659;49.408;11.116;2023-03-31T18:24:48;9.90;99.90
11204;DHT22;5659;49.408;11.116;2023-03-31T18:27:14;10.60;99.90
11204;DHT22;5659;49.408;11.116;2023-03-31T18:29:40;10.30;99.90
11204;DHT22;5659;49.408;11.116;2023-03-31T18:32:05;9.80;99.90
11204;DHT22;5659;49.408;11.116;2023-03-31T18:34:31;10.30;99.90
11204;DHT22;5659;49.408;11.116;2023-03-31T18:36:58;9.60;99.90
11204;DHT22;5659;49.408;11.116;2023-03-31T18:39:23;10.40;99.90
11204;DHT22;5659;49.408;11.116;2023-03-31T18:41:49;9.80;99.90
11204;DHT22;5659;49.408;11.116;2023-03-31T18:44:15;10.10;99.90
11204;DHT22;5659;49.408;11.116;2023-03-31T18:46:42;9.60;99.90
11204;DHT22;5659;49.408;11.116;2023-03-31T18:49:08;9.60;99.90
11204;DHT22;5659;49.408;11.116;2023-03-31T18:51:34;10.20;99.90
11204;DHT22;5659;49.408;11.116;2023-03-31T18:54:00;9.40;99.90
11204;DHT22;5659;49.408;11.116;2023-03-31T18:56:25;9.90;99.90
11204;DHT22;5659;49.408;11.116;2023-03-31T18:58:51;10.20;99.90
11204;DHT22;5659;49.408;11.116;2023-03-31T19:01:17;9.60;99.90
11204;DHT22;5659;49.408;11.116;2023-03-31T19:03:44;9.50;99.90
11204;DHT22;5659;49.408;11.116;2023-03-31T19:06:11;9.20;99.90
11204;DHT22;5659;49.408;11.116;2023-03-31T19:08:38;9.70;99.90
11204;DHT22;5659;49.408;11.116;2023-03-31T19:11:04;9.50;99.90
11204;DHT22;5659;49.408;11.116;2023-03-31T19:13:30;9.20;99.90
11204;DHT22;5659;49.408;11.116;2023-03-31T19:15:56;9.70;99.90
11204;DHT22;5659;49.408;11.116;2023-03-31T19:18:22;9.20;99.90
11204;DHT22;5659;49.408;11.116;2023-03-31T19:20:47;9.50;99.90
11204;DHT22;5659;49.408;11.116;2023-03-31T19:23:13;9.30;99.90
11204;DHT22;5659;49.408;11.116;2023-03-31T19:25:39;9.70;99.90
11204;DHT22;5659;49.408;11.116;2023-03-31T19:28:05;9.30;99.90
11204;DHT22;5659;49.408;11.116;2023-03-31T19:30:31;9.90;99.90
11204;DHT22;5659;49.408;11.116;2023-03-31T19:32:57;9.50;99.90
11204;DHT22;5659;49.408;11.116;2023-03-31T19:35:25;9.50;99.90
11204;DHT22;5659;49.408;11.116;2023-03-31T19:37:53;9.40;99.90
11204;DHT22;5659;49.408;11.116;2023-03-31T19:40:19;9.50;99.90
11204;DHT22;5659;49.408;11.116;2023-03-31T19:42:44;9.40;99.90
11204;DHT22;5659;49.408;11.116;2023-03-31T19:45:10;9.70;99.90
11204;DHT22;5659;49.408;11.116;2023-03-31T19:47:36;9.70;99.90
11204;DHT22;5659;49.408;11.116;2023-03-31T19:50:01;10.10;99.90
11204;DHT22;5659;49.408;11.116;2023-03-31T19:52:28;9.50;99.90
11204;DHT22;5659;49.408;11.116;2023-03-31T19:54:54;10.00;99.90
11204;DHT22;5659;49.408;11.116;2023-03-31T19:57:19;10.50;99.90
11204;DHT22;5659;49.408;11.116;2023-03-31T19:59:45;9.40;99.90
11204;DHT22;5659;49.408;11.116;2023-03-31T20:02:11;9.40;99.90
11204;DHT22;5659;49.408;11.116;2023-03-31T20:04:39;9.20;99.90
11204;DHT22;5659;49.408;11.116;2023-03-31T20:07:05;9.30;99.90
11204;DHT22;5659;49.408;11.116;2023-03-31T20:09:31;9.50;99.90
11204;DHT22;5659;49.408;11.116;2023-03-31T20:11:57;9.20;99.90
11204;DHT22;5659;49.408;11.116;2023-03-31T20:14:22;9.30;99.90
11204;DHT22;5659;49.408;11.116;2023-03-31T20:16:49;9.20;99.90
11204;DHT22;5659;49.408;11.116;2023-03-31T20:19:16;9.60;99.90
11204;DHT22;5659;49.408;11.116;2023-03-31T20:21:42;9.40;99.90
11204;DHT22;5659;49.408;11.116;2023-03-31T20:24:16;9.20;99.90
11204;DHT22;5659;49.408;11.116;2023-03-31T20:26:43;9.10;99.90
11204;DHT22;5659;49.408;11.116;2023-03-31T20:29:10;9.10;99.90
11204;DHT22;5659;49.408;11.116;2023-03-31T20:31:37;8.60;99.90
11204;DHT22;5659;49.408;11.116;2023-03-31T20:34:04;9.50;99.90
11204;DHT22;5659;49.408;11.116;2023-03-31T20:36:31;8.90;99.90
11204;DHT22;5659;49.408;11.116;2023-03-31T20:38:58;8.80;99.90
11204;DHT22;5659;49.408;11.116;2023-03-31T20:41:26;8.00;99.90
11204;DHT22;5659;49.408;11.116;2023-03-31T20:43:53;7.90;99.90
11204;DHT22;5659;49.408;11.116;2023-03-31T20:46:20;7.60;99.90
11204;DHT22;5659;49.408;11.116;2023-03-31T20:48:48;8.90;99.90
11204;DHT22;5659;49.408;11.116;2023-03-31T20:51:17;7.40;99.90
11204;DHT22;5659;49.408;11.116;2023-03-31T20:53:45;7.40;99.90
11204;DHT22;5659;49.408;11.116;2023-03-31T20:56:16;7.40;99.90
11204;DHT22;5659;49.408;11.116;2023-03-31T21:01:10;7.30;99.90
11204;DHT22;5659;49.408;11.116;2023-03-31T21:03:36;7.30;99.90
11204;DHT22;5659;49.408;11.116;2023-03-31T22:31:51;8.00;99.90
11204;DHT22;5659;49.408;11.116;2023-03-31T22:34:17;7.90;99.90
11204;DHT22;5659;49.408;11.116;2023-03-31T22:36:46;7.50;99.90
11204;DHT22;5659;49.408;11.116;2023-03-31T22:39:13;7.50;99.90
11204;DHT22;5659;49.408;11.116;2023-03-31T22:41:39;7.30;99.90
11204;DHT22;5659;49.408;11.116;2023-03-31T22:44:05;7.30;99.90
11204;DHT22;5659;49.408;11.116;2023-03-31T22:46:31;7.30;99.90
11204;DHT22;5659;49.408;11.116;2023-03-31T22:48:57;8.20;99.90
11204;DHT22;5659;49.408;11.116;2023-03-31T22:51:22;8.30;99.90
11204;DHT22;5659;49.408;11.116;2023-03-31T22:53:52;7.30;99.90
11204;DHT22;5659;49.408;11.116;2023-03-31T22:56:19;7.30;99.90
11204;DHT22;5659;49.408;11.116;2023-03-31T22:58:46;7.30;99.90
11204;DHT22;5659;49.408;11.116;2023-03-31T23:01:14;7.90;99.90
11204;DHT22;5659;49.408;11.116;2023-03-31T23:03:41;7.10;99.90
11204;DHT22;5659;49.408;11.116;2023-03-31T23:06:07;7.10;99.90
11204;DHT22;5659;49.408;11.116;2023-03-31T23:08:34;7.30;99.90
11204;DHT22;5659;49.408;11.116;2023-03-31T23:11:01;7.10;99.90
11204;DHT22;5659;49.408;11.116;2023-03-31T23:13:27;7.20;99.90
11204;DHT22;5659;49.408;11.116;2023-03-31T23:15:53;7.10;99.90
11204;DHT22;5659;49.408;11.116;2023-03-31T23:18:19;7.20;99.90
11204;DHT22;5659;49.408;11.116;2023-03-31T23:20:46;7.30;99.90
11204;DHT22;5659;49.408;11.116;2023-03-31T23:23:12;7.60;99.90
11204;DHT22;5659;49.408;11.116;2023-03-31T23:25:37;7.40;99.90
11204;DHT22;5659;49.408;11.116;2023-03-31T23:28:03;7.40;99.90
11204;DHT22;5659;49.408;11.116;2023-03-31T23:30:29;7.50;99.90
11204;DHT22;5659;49.408;11.116;2023-03-31T23:32:54;7.50;99.90
11204;DHT22;5659;49.408;11.116;2023-03-31T23:35:20;7.50;99.90
11204;DHT22;5659;49.408;11.116;2023-03-31T23:37:46;7.50;99.90
11204;DHT22;5659;49.408;11.116;2023-03-31T23:40:11;7.50;99.90
11204;DHT22;5659;49.408;11.116;2023-03-31T23:42:37;7.60;99.90
